sensor_id;sensor_type;location;lat;lon;timestamp;P1;durP1;ratioP1;P2;durP2;ratioP2
54899;SDS011;40801;41.924;25.562;2023-07-28T00:01:37;6.55;;;6.07;;
54899;SDS011;40801;41.924;25.562;2023-07-28T00:04:03;6.35;;;5.95;;
54899;SDS011;40801;41.924;25.562;2023-07-28T00:06:32;5.88;;;5.47;;
54899;SDS011;40801;41.924;25.562;2023-07-28T00:08:57;6.85;;;6.35;;
54899;SDS011;40801;41.924;25.562;2023-07-28T00:11:23;6.65;;;6.25;;
54899;SDS011;40801;41.924;25.562;2023-07-28T00:13:48;6.72;;;6.25;;
54899;SDS011;40801;41.924;25.562;2023-07-28T00:16:14;6.72;;;6.28;;
54899;SDS011;40801;41.924;25.562;2023-07-28T00:18:39;6.38;;;5.97;;
54899;SDS011;40801;41.924;25.562;2023-07-28T00:21:05;6.60;;;6.07;;
54899;SDS011;40801;41.924;25.562;2023-07-28T00:23:30;6.75;;;6.35;;
54899;SDS011;40801;41.924;25.562;2023-07-28T00:25:56;6.00;;;5.60;;
54899;SDS011;40801;41.924;25.562;2023-07-28T00:28:21;5.93;;;5.53;;
54899;SDS011;40801;41.924;25.562;2023-07-28T00:30:50;5.93;;;5.63;;
54899;SDS011;40801;41.924;25.562;2023-07-28T00:33:16;6.22;;;5.93;;
54899;SDS011;40801;41.924;25.562;2023-07-28T00:35:41;6.15;;;5.75;;
54899;SDS011;40801;41.924;25.562;2023-07-28T00:38:07;6.75;;;6.25;;
54899;SDS011;40801;41.924;25.562;2023-07-28T00:40:34;6.40;;;6.00;;
54899;SDS011;40801;41.924;25.562;2023-07-28T00:43:00;6.43;;;5.97;;
54899;SDS011;40801;41.924;25.562;2023-07-28T00:45:26;5.93;;;5.63;;
54899;SDS011;40801;41.924;25.562;2023-07-28T00:47:51;6.10;;;5.70;;
54899;SDS011;40801;41.924;25.562;2023-07-28T00:50:17;5.95;;;5.45;;
54899;SDS011;40801;41.924;25.562;2023-07-28T00:52:43;6.90;;;6.20;;
54899;SDS011;40801;41.924;25.562;2023-07-28T00:55:08;5.65;;;5.35;;
54899;SDS011;40801;41.924;25.562;2023-07-28T00:57:34;6.50;;;6.03;;
54899;SDS011;40801;41.924;25.562;2023-07-28T01:00:00;6.47;;;6.13;;
54899;SDS011;40801;41.924;25.562;2023-07-28T01:02:25;6.13;;;5.80;;
54899;SDS011;40801;41.924;25.562;2023-07-28T01:04:51;6.57;;;5.97;;
54899;SDS011;40801;41.924;25.562;2023-07-28T01:07:20;6.55;;;6.10;;
54899;SDS011;40801;41.924;25.562;2023-07-28T01:10:13;6.45;;;5.95;;
54899;SDS011;40801;41.924;25.562;2023-07-28T01:12:55;6.30;;;5.90;;
54899;SDS011;40801;41.924;25.562;2023-07-28T01:15:20;7.10;;;6.60;;
54899;SDS011;40801;41.924;25.562;2023-07-28T01:17:45;6.40;;;5.93;;
54899;SDS011;40801;41.924;25.562;2023-07-28T01:20:11;6.78;;;6.30;;
54899;SDS011;40801;41.924;25.562;2023-07-28T01:27:58;6.82;;;6.43;;
54899;SDS011;40801;41.924;25.562;2023-07-28T01:30:25;7.30;;;6.80;;
54899;SDS011;40801;41.924;25.562;2023-07-28T01:32:55;6.47;;;6.07;;
54899;SDS011;40801;41.924;25.562;2023-07-28T01:37:47;8.30;;;7.65;;
54899;SDS011;40801;41.924;25.562;2023-07-28T01:40:16;7.32;;;6.82;;
54899;SDS011;40801;41.924;25.562;2023-07-28T01:42:42;7.47;;;6.97;;
54899;SDS011;40801;41.924;25.562;2023-07-28T01:45:07;7.07;;;6.65;;
54899;SDS011;40801;41.924;25.562;2023-07-28T01:47:33;7.40;;;7.00;;
54899;SDS011;40801;41.924;25.562;2023-07-28T01:49:59;7.70;;;7.00;;
54899;SDS011;40801;41.924;25.562;2023-07-28T01:52:24;7.38;;;6.93;;
54899;SDS011;40801;41.924;25.562;2023-07-28T01:54:49;7.20;;;6.80;;
54899;SDS011;40801;41.924;25.562;2023-07-28T01:57:15;7.07;;;6.68;;
54899;SDS011;40801;41.924;25.562;2023-07-28T01:59:41;7.55;;;6.43;;
54899;SDS011;40801;41.924;25.562;2023-07-28T02:02:06;8.30;;;7.80;;
54899;SDS011;40801;41.924;25.562;2023-07-28T02:04:31;7.28;;;6.70;;
54899;SDS011;40801;41.924;25.562;2023-07-28T02:06:57;7.18;;;6.68;;
54899;SDS011;40801;41.924;25.562;2023-07-28T02:09:22;7.30;;;6.80;;
54899;SDS011;40801;41.924;25.562;2023-07-28T02:11:47;7.38;;;6.82;;
54899;SDS011;40801;41.924;25.562;2023-07-28T02:14:13;7.25;;;6.75;;
54899;SDS011;40801;41.924;25.562;2023-07-28T02:16:38;7.05;;;6.75;;
54899;SDS011;40801;41.924;25.562;2023-07-28T02:19:03;7.25;;;6.85;;
54899;SDS011;40801;41.924;25.562;2023-07-28T02:21:30;7.80;;;7.30;;
54899;SDS011;40801;41.924;25.562;2023-07-28T02:23:55;8.40;;;7.82;;
54899;SDS011;40801;41.924;25.562;2023-07-28T02:26:20;7.63;;;7.22;;
54899;SDS011;40801;41.924;25.562;2023-07-28T02:28:46;8.35;;;7.93;;
54899;SDS011;40801;41.924;25.562;2023-07-28T02:31:11;7.28;;;6.88;;
54899;SDS011;40801;41.924;25.562;2023-07-28T02:33:36;8.18;;;7.40;;
54899;SDS011;40801;41.924;25.562;2023-07-28T02:36:03;7.78;;;7.28;;
54899;SDS011;40801;41.924;25.562;2023-07-28T02:38:29;7.50;;;7.03;;
54899;SDS011;40801;41.924;25.562;2023-07-28T02:40:54;7.82;;;7.32;;
54899;SDS011;40801;41.924;25.562;2023-07-28T02:43:20;8.50;;;7.95;;
54899;SDS011;40801;41.924;25.562;2023-07-28T02:45:52;9.70;;;8.25;;
54899;SDS011;40801;41.924;25.562;2023-07-28T02:48:18;8.05;;;7.55;;
54899;SDS011;40801;41.924;25.562;2023-07-28T02:50:46;7.72;;;7.28;;
54899;SDS011;40801;41.924;25.562;2023-07-28T02:53:12;7.82;;;7.40;;
54899;SDS011;40801;41.924;25.562;2023-07-28T02:55:42;7.90;;;7.28;;
54899;SDS011;40801;41.924;25.562;2023-07-28T03:00:33;8.85;;;8.02;;
54899;SDS011;40801;41.924;25.562;2023-07-28T03:02:59;8.63;;;7.97;;
54899;SDS011;40801;41.924;25.562;2023-07-28T03:05:24;7.75;;;7.25;;
54899;SDS011;40801;41.924;25.562;2023-07-28T03:07:49;8.43;;;7.90;;
54899;SDS011;40801;41.924;25.562;2023-07-28T03:10:15;8.35;;;7.95;;
54899;SDS011;40801;41.924;25.562;2023-07-28T03:12:42;8.65;;;8.05;;
54899;SDS011;40801;41.924;25.562;2023-07-28T03:15:07;8.50;;;7.85;;
54899;SDS011;40801;41.924;25.562;2023-07-28T03:17:33;8.63;;;8.02;;
54899;SDS011;40801;41.924;25.562;2023-07-28T03:19:58;8.85;;;8.15;;
54899;SDS011;40801;41.924;25.562;2023-07-28T03:22:24;8.43;;;7.80;;
54899;SDS011;40801;41.924;25.562;2023-07-28T03:24:49;8.57;;;7.97;;
54899;SDS011;40801;41.924;25.562;2023-07-28T03:27:14;8.27;;;7.68;;
54899;SDS011;40801;41.924;25.562;2023-07-28T03:29:40;9.00;;;8.20;;
54899;SDS011;40801;41.924;25.562;2023-07-28T03:32:05;8.10;;;7.50;;
54899;SDS011;40801;41.924;25.562;2023-07-28T03:34:31;8.75;;;8.25;;
54899;SDS011;40801;41.924;25.562;2023-07-28T03:36:56;9.48;;;8.73;;
54899;SDS011;40801;41.924;25.562;2023-07-28T03:39:21;8.93;;;8.35;;
54899;SDS011;40801;41.924;25.562;2023-07-28T03:41:47;8.48;;;7.88;;
54899;SDS011;40801;41.924;25.562;2023-07-28T03:44:12;8.07;;;7.50;;
54899;SDS011;40801;41.924;25.562;2023-07-28T03:46:38;8.85;;;8.07;;
54899;SDS011;40801;41.924;25.562;2023-07-28T03:49:03;8.25;;;7.75;;
54899;SDS011;40801;41.924;25.562;2023-07-28T03:51:29;9.50;;;8.00;;
54899;SDS011;40801;41.924;25.562;2023-07-28T03:53:54;9.40;;;8.45;;
54899;SDS011;40801;41.924;25.562;2023-07-28T03:56:19;9.15;;;8.63;;
54899;SDS011;40801;41.924;25.562;2023-07-28T03:58:45;8.60;;;7.90;;
54899;SDS011;40801;41.924;25.562;2023-07-28T04:01:10;9.55;;;8.95;;
54899;SDS011;40801;41.924;25.562;2023-07-28T04:03:35;8.60;;;7.90;;
54899;SDS011;40801;41.924;25.562;2023-07-28T04:06:05;8.63;;;8.07;;
54899;SDS011;40801;41.924;25.562;2023-07-28T04:08:34;9.63;;;9.02;;
54899;SDS011;40801;41.924;25.562;2023-07-28T04:11:00;9.55;;;8.43;;
54899;SDS011;40801;41.924;25.562;2023-07-28T04:13:25;8.73;;;8.13;;
54899;SDS011;40801;41.924;25.562;2023-07-28T04:15:50;8.40;;;7.80;;
54899;SDS011;40801;41.924;25.562;2023-07-28T04:18:16;10.15;;;9.35;;
54899;SDS011;40801;41.924;25.562;2023-07-28T04:20:43;8.93;;;8.30;;
54899;SDS011;40801;41.924;25.562;2023-07-28T04:23:08;9.68;;;8.98;;
54899;SDS011;40801;41.924;25.562;2023-07-28T04:25:33;8.20;;;7.70;;
54899;SDS011;40801;41.924;25.562;2023-07-28T04:27:59;8.38;;;7.68;;
54899;SDS011;40801;41.924;25.562;2023-07-28T04:30:24;8.95;;;8.23;;
54899;SDS011;40801;41.924;25.562;2023-07-28T04:32:49;8.40;;;7.82;;
54899;SDS011;40801;41.924;25.562;2023-07-28T04:35:15;8.40;;;7.82;;
54899;SDS011;40801;41.924;25.562;2023-07-28T04:37:40;8.00;;;7.40;;
54899;SDS011;40801;41.924;25.562;2023-07-28T04:40:07;7.82;;;7.32;;
54899;SDS011;40801;41.924;25.562;2023-07-28T04:42:33;8.85;;;7.95;;
54899;SDS011;40801;41.924;25.562;2023-07-28T04:44:59;8.27;;;7.68;;
54899;SDS011;40801;41.924;25.562;2023-07-28T04:47:24;8.43;;;7.72;;
54899;SDS011;40801;41.924;25.562;2023-07-28T04:49:50;7.75;;;7.25;;
54899;SDS011;40801;41.924;25.562;2023-07-28T04:52:15;8.00;;;7.35;;
54899;SDS011;40801;41.924;25.562;2023-07-28T04:54:40;8.00;;;7.40;;
54899;SDS011;40801;41.924;25.562;2023-07-28T04:57:06;8.27;;;7.60;;
54899;SDS011;40801;41.924;25.562;2023-07-28T04:59:31;7.13;;;6.70;;
54899;SDS011;40801;41.924;25.562;2023-07-28T05:01:56;8.45;;;7.78;;
54899;SDS011;40801;41.924;25.562;2023-07-28T05:04:22;7.53;;;6.95;;
54899;SDS011;40801;41.924;25.562;2023-07-28T05:06:47;8.65;;;8.02;;
54899;SDS011;40801;41.924;25.562;2023-07-28T05:09:13;7.75;;;7.18;;
54899;SDS011;40801;41.924;25.562;2023-07-28T05:11:38;7.38;;;6.90;;
54899;SDS011;40801;41.924;25.562;2023-07-28T05:14:03;7.53;;;6.97;;
54899;SDS011;40801;41.924;25.562;2023-07-28T05:16:31;7.93;;;7.32;;
54899;SDS011;40801;41.924;25.562;2023-07-28T05:18:57;8.23;;;7.60;;
54899;SDS011;40801;41.924;25.562;2023-07-28T05:21:22;7.93;;;7.28;;
54899;SDS011;40801;41.924;25.562;2023-07-28T05:23:47;8.05;;;7.45;;
54899;SDS011;40801;41.924;25.562;2023-07-28T05:26:13;8.30;;;7.68;;
54899;SDS011;40801;41.924;25.562;2023-07-28T05:28:38;7.40;;;6.90;;
54899;SDS011;40801;41.924;25.562;2023-07-28T05:31:07;8.57;;;7.97;;
54899;SDS011;40801;41.924;25.562;2023-07-28T05:33:32;8.10;;;7.40;;
54899;SDS011;40801;41.924;25.562;2023-07-28T05:36:01;7.80;;;7.20;;
54899;SDS011;40801;41.924;25.562;2023-07-28T05:38:30;8.85;;;7.38;;
54899;SDS011;40801;41.924;25.562;2023-07-28T05:40:56;9.27;;;8.50;;
54899;SDS011;40801;41.924;25.562;2023-07-28T05:43:22;8.98;;;8.18;;
54899;SDS011;40801;41.924;25.562;2023-07-28T05:45:47;8.23;;;7.63;;
54899;SDS011;40801;41.924;25.562;2023-07-28T05:48:13;8.63;;;7.50;;
54899;SDS011;40801;41.924;25.562;2023-07-28T05:50:38;7.28;;;6.68;;
54899;SDS011;40801;41.924;25.562;2023-07-28T05:53:04;7.10;;;6.50;;
54899;SDS011;40801;41.924;25.562;2023-07-28T05:55:29;8.52;;;7.38;;
54899;SDS011;40801;41.924;25.562;2023-07-28T05:57:54;7.05;;;6.43;;
54899;SDS011;40801;41.924;25.562;2023-07-28T06:00:20;6.78;;;6.18;;
54899;SDS011;40801;41.924;25.562;2023-07-28T06:02:47;6.45;;;6.07;;
54899;SDS011;40801;41.924;25.562;2023-07-28T06:05:12;7.25;;;6.75;;
54899;SDS011;40801;41.924;25.562;2023-07-28T06:07:38;6.78;;;6.28;;
54899;SDS011;40801;41.924;25.562;2023-07-28T06:10:03;6.03;;;5.43;;
54899;SDS011;40801;41.924;25.562;2023-07-28T06:12:29;6.55;;;5.95;;
54899;SDS011;40801;41.924;25.562;2023-07-28T06:14:54;5.60;;;5.20;;
54899;SDS011;40801;41.924;25.562;2023-07-28T06:17:20;5.47;;;5.10;;
54899;SDS011;40801;41.924;25.562;2023-07-28T06:19:45;5.90;;;5.43;;
54899;SDS011;40801;41.924;25.562;2023-07-28T06:22:10;5.68;;;5.28;;
54899;SDS011;40801;41.924;25.562;2023-07-28T06:24:36;7.18;;;6.43;;
54899;SDS011;40801;41.924;25.562;2023-07-28T06:27:01;5.68;;;5.28;;
54899;SDS011;40801;41.924;25.562;2023-07-28T06:29:32;7.47;;;6.07;;
54899;SDS011;40801;41.924;25.562;2023-07-28T06:31:57;5.80;;;5.40;;
54899;SDS011;40801;41.924;25.562;2023-07-28T06:34:23;5.05;;;4.68;;
54899;SDS011;40801;41.924;25.562;2023-07-28T06:36:48;4.85;;;4.55;;
54899;SDS011;40801;41.924;25.562;2023-07-28T06:39:13;4.50;;;4.20;;
54899;SDS011;40801;41.924;25.562;2023-07-28T06:41:39;4.85;;;4.45;;
54899;SDS011;40801;41.924;25.562;2023-07-28T06:44:05;5.13;;;4.65;;
54899;SDS011;40801;41.924;25.562;2023-07-28T06:46:30;5.30;;;4.78;;
54899;SDS011;40801;41.924;25.562;2023-07-28T06:48:56;4.97;;;4.60;;
54899;SDS011;40801;41.924;25.562;2023-07-28T06:51:21;4.22;;;3.83;;
54899;SDS011;40801;41.924;25.562;2023-07-28T06:53:47;3.35;;;3.20;;
54899;SDS011;40801;41.924;25.562;2023-07-28T06:56:12;3.80;;;3.60;;
54899;SDS011;40801;41.924;25.562;2023-07-28T06:58:38;4.10;;;3.80;;
54899;SDS011;40801;41.924;25.562;2023-07-28T07:01:03;3.80;;;3.60;;
54899;SDS011;40801;41.924;25.562;2023-07-28T07:03:28;3.80;;;3.60;;
54899;SDS011;40801;41.924;25.562;2023-07-28T07:05:54;3.47;;;3.17;;
54899;SDS011;40801;41.924;25.562;2023-07-28T07:08:19;3.78;;;3.47;;
54899;SDS011;40801;41.924;25.562;2023-07-28T07:10:51;4.60;;;4.22;;
54899;SDS011;40801;41.924;25.562;2023-07-28T07:13:17;4.45;;;3.60;;
54899;SDS011;40801;41.924;25.562;2023-07-28T07:15:43;4.20;;;3.78;;
54899;SDS011;40801;41.924;25.562;2023-07-28T07:18:08;5.53;;;5.07;;
54899;SDS011;40801;41.924;25.562;2023-07-28T07:20:34;4.80;;;4.25;;
54899;SDS011;40801;41.924;25.562;2023-07-28T07:23:01;4.80;;;4.45;;
54899;SDS011;40801;41.924;25.562;2023-07-28T07:25:26;5.18;;;3.80;;
54899;SDS011;40801;41.924;25.562;2023-07-28T07:27:52;5.00;;;3.85;;
54899;SDS011;40801;41.924;25.562;2023-07-28T07:30:17;3.72;;;3.53;;
54899;SDS011;40801;41.924;25.562;2023-07-28T07:32:42;4.30;;;3.90;;
54899;SDS011;40801;41.924;25.562;2023-07-28T07:35:08;4.72;;;4.22;;
54899;SDS011;40801;41.924;25.562;2023-07-28T07:37:34;3.95;;;3.63;;
54899;SDS011;40801;41.924;25.562;2023-07-28T07:39:59;4.13;;;3.75;;
54899;SDS011;40801;41.924;25.562;2023-07-28T07:42:26;4.10;;;3.80;;
54899;SDS011;40801;41.924;25.562;2023-07-28T07:44:52;4.63;;;3.65;;
54899;SDS011;40801;41.924;25.562;2023-07-28T07:47:17;4.05;;;3.78;;
54899;SDS011;40801;41.924;25.562;2023-07-28T07:49:43;4.88;;;3.40;;
54899;SDS011;40801;41.924;25.562;2023-07-28T07:52:08;3.55;;;3.25;;
54899;SDS011;40801;41.924;25.562;2023-07-28T07:54:34;3.85;;;3.30;;
54899;SDS011;40801;41.924;25.562;2023-07-28T07:57:00;3.35;;;3.17;;
54899;SDS011;40801;41.924;25.562;2023-07-28T07:59:25;4.13;;;3.08;;
54899;SDS011;40801;41.924;25.562;2023-07-28T08:01:53;3.72;;;3.50;;
54899;SDS011;40801;41.924;25.562;2023-07-28T08:04:19;2.90;;;2.70;;
54899;SDS011;40801;41.924;25.562;2023-07-28T08:06:44;3.65;;;3.40;;
54899;SDS011;40801;41.924;25.562;2023-07-28T08:09:09;3.38;;;3.17;;
54899;SDS011;40801;41.924;25.562;2023-07-28T08:11:35;7.43;;;6.72;;
54899;SDS011;40801;41.924;25.562;2023-07-28T08:14:00;3.40;;;3.17;;
54899;SDS011;40801;41.924;25.562;2023-07-28T08:16:25;4.35;;;3.25;;
54899;SDS011;40801;41.924;25.562;2023-07-28T08:18:51;3.05;;;2.85;;
54899;SDS011;40801;41.924;25.562;2023-07-28T08:21:16;2.53;;;2.33;;
54899;SDS011;40801;41.924;25.562;2023-07-28T08:23:42;2.50;;;2.35;;
54899;SDS011;40801;41.924;25.562;2023-07-28T08:26:07;4.07;;;2.90;;
54899;SDS011;40801;41.924;25.562;2023-07-28T08:28:33;3.38;;;2.72;;
54899;SDS011;40801;41.924;25.562;2023-07-28T08:30:58;3.42;;;3.15;;
54899;SDS011;40801;41.924;25.562;2023-07-28T08:33:24;4.18;;;3.88;;
54899;SDS011;40801;41.924;25.562;2023-07-28T08:35:49;4.97;;;4.50;;
54899;SDS011;40801;41.924;25.562;2023-07-28T08:38:15;2.40;;;2.20;;
54899;SDS011;40801;41.924;25.562;2023-07-28T08:40:41;2.33;;;2.13;;
54899;SDS011;40801;41.924;25.562;2023-07-28T08:43:09;2.55;;;2.35;;
54899;SDS011;40801;41.924;25.562;2023-07-28T08:45:34;2.67;;;2.45;;
54899;SDS011;40801;41.924;25.562;2023-07-28T08:48:00;2.95;;;2.75;;
54899;SDS011;40801;41.924;25.562;2023-07-28T08:50:25;2.75;;;2.50;;
54899;SDS011;40801;41.924;25.562;2023-07-28T08:52:51;2.72;;;2.60;;
54899;SDS011;40801;41.924;25.562;2023-07-28T08:55:17;2.33;;;2.13;;
54899;SDS011;40801;41.924;25.562;2023-07-28T08:57:42;2.63;;;2.45;;
54899;SDS011;40801;41.924;25.562;2023-07-28T09:00:11;2.03;;;1.92;;
54899;SDS011;40801;41.924;25.562;2023-07-28T09:02:39;1.90;;;1.80;;
54899;SDS011;40801;41.924;25.562;2023-07-28T09:05:06;2.03;;;1.85;;
54899;SDS011;40801;41.924;25.562;2023-07-28T09:07:35;2.13;;;1.92;;
54899;SDS011;40801;41.924;25.562;2023-07-28T09:10:01;2.95;;;2.50;;
54899;SDS011;40801;41.924;25.562;2023-07-28T09:12:30;2.45;;;2.25;;
54899;SDS011;40801;41.924;25.562;2023-07-28T09:14:56;3.88;;;2.67;;
54899;SDS011;40801;41.924;25.562;2023-07-28T09:17:22;2.58;;;2.33;;
54899;SDS011;40801;41.924;25.562;2023-07-28T09:19:51;1.92;;;1.83;;
54899;SDS011;40801;41.924;25.562;2023-07-28T09:22:17;1.90;;;1.80;;
54899;SDS011;40801;41.924;25.562;2023-07-28T09:24:44;1.85;;;1.75;;
54899;SDS011;40801;41.924;25.562;2023-07-28T09:27:12;1.92;;;1.83;;
54899;SDS011;40801;41.924;25.562;2023-07-28T09:29:51;2.08;;;1.98;;
54899;SDS011;40801;41.924;25.562;2023-07-28T09:32:28;1.90;;;1.80;;
54899;SDS011;40801;41.924;25.562;2023-07-28T09:35:05;2.25;;;1.60;;
54899;SDS011;40801;41.924;25.562;2023-07-28T09:37:32;2.92;;;2.08;;
54899;SDS011;40801;41.924;25.562;2023-07-28T09:39:59;2.17;;;2.00;;
54899;SDS011;40801;41.924;25.562;2023-07-28T09:42:25;3.03;;;2.10;;
54899;SDS011;40801;41.924;25.562;2023-07-28T09:44:52;1.95;;;1.80;;
54899;SDS011;40801;41.924;25.562;2023-07-28T09:47:17;2.10;;;2.00;;
54899;SDS011;40801;41.924;25.562;2023-07-28T09:49:45;1.77;;;1.67;;
54899;SDS011;40801;41.924;25.562;2023-07-28T09:52:13;2.25;;;2.05;;
54899;SDS011;40801;41.924;25.562;2023-07-28T09:54:43;1.95;;;1.85;;
54899;SDS011;40801;41.924;25.562;2023-07-28T09:57:14;2.00;;;1.90;;
54899;SDS011;40801;41.924;25.562;2023-07-28T09:59:42;1.70;;;1.60;;
54899;SDS011;40801;41.924;25.562;2023-07-28T10:02:11;2.42;;;2.17;;
54899;SDS011;40801;41.924;25.562;2023-07-28T10:04:37;1.48;;;1.40;;
54899;SDS011;40801;41.924;25.562;2023-07-28T10:07:06;1.70;;;1.60;;
54899;SDS011;40801;41.924;25.562;2023-07-28T10:09:32;1.80;;;1.70;;
54899;SDS011;40801;41.924;25.562;2023-07-28T10:11:59;2.42;;;1.95;;
54899;SDS011;40801;41.924;25.562;2023-07-28T10:14:26;1.90;;;1.80;;
54899;SDS011;40801;41.924;25.562;2023-07-28T10:16:53;3.50;;;1.83;;
54899;SDS011;40801;41.924;25.562;2023-07-28T10:19:19;2.28;;;1.83;;
54899;SDS011;40801;41.924;25.562;2023-07-28T10:21:45;2.03;;;1.65;;
54899;SDS011;40801;41.924;25.562;2023-07-28T10:24:11;1.70;;;1.60;;
54899;SDS011;40801;41.924;25.562;2023-07-28T10:29:11;1.67;;;1.50;;
54899;SDS011;40801;41.924;25.562;2023-07-28T10:31:48;3.03;;;1.65;;
54899;SDS011;40801;41.924;25.562;2023-07-28T10:34:18;1.90;;;1.80;;
54899;SDS011;40801;41.924;25.562;2023-07-28T10:36:44;1.70;;;1.60;;
54899;SDS011;40801;41.924;25.562;2023-07-28T10:39:16;2.15;;;1.80;;
54899;SDS011;40801;41.924;25.562;2023-07-28T10:42:02;2.10;;;1.95;;
54899;SDS011;40801;41.924;25.562;2023-07-28T10:44:28;1.60;;;1.55;;
54899;SDS011;40801;41.924;25.562;2023-07-28T10:46:54;1.73;;;1.63;;
54899;SDS011;40801;41.924;25.562;2023-07-28T10:49:19;1.77;;;1.65;;
54899;SDS011;40801;41.924;25.562;2023-07-28T10:51:45;2.28;;;1.88;;
54899;SDS011;40801;41.924;25.562;2023-07-28T10:54:11;1.70;;;1.60;;
54899;SDS011;40801;41.924;25.562;2023-07-28T10:56:40;1.75;;;1.65;;
54899;SDS011;40801;41.924;25.562;2023-07-28T10:59:06;1.70;;;1.60;;
54899;SDS011;40801;41.924;25.562;2023-07-28T11:01:35;1.63;;;1.60;;
54899;SDS011;40801;41.924;25.562;2023-07-28T11:06:40;2.05;;;1.95;;
54899;SDS011;40801;41.924;25.562;2023-07-28T11:09:10;1.90;;;1.80;;
54899;SDS011;40801;41.924;25.562;2023-07-28T11:11:40;2.47;;;1.95;;
54899;SDS011;40801;41.924;25.562;2023-07-28T11:14:07;2.20;;;2.10;;
54899;SDS011;40801;41.924;25.562;2023-07-28T11:16:34;1.75;;;1.67;;
54899;SDS011;40801;41.924;25.562;2023-07-28T11:19:01;1.85;;;1.75;;
54899;SDS011;40801;41.924;25.562;2023-07-28T11:21:27;2.53;;;2.33;;
54899;SDS011;40801;41.924;25.562;2023-07-28T11:23:53;1.85;;;1.70;;
54899;SDS011;40801;41.924;25.562;2023-07-28T11:26:19;1.83;;;1.73;;
54899;SDS011;40801;41.924;25.562;2023-07-28T11:28:48;4.78;;;2.00;;
54899;SDS011;40801;41.924;25.562;2023-07-28T11:31:13;3.20;;;3.00;;
54899;SDS011;40801;41.924;25.562;2023-07-28T11:33:39;2.80;;;1.95;;
54899;SDS011;40801;41.924;25.562;2023-07-28T11:36:05;2.53;;;1.80;;
54899;SDS011;40801;41.924;25.562;2023-07-28T11:38:31;1.92;;;1.52;;
54899;SDS011;40801;41.924;25.562;2023-07-28T11:40:58;2.10;;;2.00;;
54899;SDS011;40801;41.924;25.562;2023-07-28T11:43:23;1.85;;;1.75;;
54899;SDS011;40801;41.924;25.562;2023-07-28T11:45:50;3.47;;;2.03;;
54899;SDS011;40801;41.924;25.562;2023-07-28T11:48:15;1.98;;;1.88;;
54899;SDS011;40801;41.924;25.562;2023-07-28T11:50:41;3.95;;;2.72;;
54899;SDS011;40801;41.924;25.562;2023-07-28T11:53:08;2.28;;;2.17;;
54899;SDS011;40801;41.924;25.562;2023-07-28T11:55:34;10.98;;;10.02;;
54899;SDS011;40801;41.924;25.562;2023-07-28T11:58:01;2.00;;;1.65;;
54899;SDS011;40801;41.924;25.562;2023-07-28T12:00:33;1.75;;;1.65;;
54899;SDS011;40801;41.924;25.562;2023-07-28T12:05:31;1.80;;;1.70;;
54899;SDS011;40801;41.924;25.562;2023-07-28T12:07:58;1.80;;;1.70;;
54899;SDS011;40801;41.924;25.562;2023-07-28T12:10:24;2.42;;;2.17;;
54899;SDS011;40801;41.924;25.562;2023-07-28T12:12:49;2.40;;;1.77;;
54899;SDS011;40801;41.924;25.562;2023-07-28T12:18:13;3.28;;;3.03;;
54899;SDS011;40801;41.924;25.562;2023-07-28T12:20:50;1.90;;;1.80;;
54899;SDS011;40801;41.924;25.562;2023-07-28T12:23:20;2.08;;;1.88;;
54899;SDS011;40801;41.924;25.562;2023-07-28T12:25:46;2.75;;;1.98;;
54899;SDS011;40801;41.924;25.562;2023-07-28T12:28:12;1.75;;;1.55;;
54899;SDS011;40801;41.924;25.562;2023-07-28T12:30:38;1.73;;;1.63;;
54899;SDS011;40801;41.924;25.562;2023-07-28T12:33:04;1.70;;;1.60;;
54899;SDS011;40801;41.924;25.562;2023-07-28T12:35:31;4.55;;;4.15;;
54899;SDS011;40801;41.924;25.562;2023-07-28T12:37:59;7.93;;;7.13;;
54899;SDS011;40801;41.924;25.562;2023-07-28T12:40:26;2.35;;;2.20;;
54899;SDS011;40801;41.924;25.562;2023-07-28T12:42:55;2.65;;;2.10;;
54899;SDS011;40801;41.924;25.562;2023-07-28T12:45:22;2.83;;;2.05;;
54899;SDS011;40801;41.924;25.562;2023-07-28T12:47:50;2.00;;;1.90;;
54899;SDS011;40801;41.924;25.562;2023-07-28T12:50:16;2.00;;;1.90;;
54899;SDS011;40801;41.924;25.562;2023-07-28T12:52:41;2.20;;;2.10;;
54899;SDS011;40801;41.924;25.562;2023-07-28T12:55:07;1.70;;;1.60;;
54899;SDS011;40801;41.924;25.562;2023-07-28T12:57:32;23.35;;;21.48;;
54899;SDS011;40801;41.924;25.562;2023-07-28T12:59:58;4.20;;;2.80;;
54899;SDS011;40801;41.924;25.562;2023-07-28T13:02:23;2.22;;;2.13;;
54899;SDS011;40801;41.924;25.562;2023-07-28T13:04:49;2.08;;;1.98;;
54899;SDS011;40801;41.924;25.562;2023-07-28T13:07:14;2.63;;;1.73;;
54899;SDS011;40801;41.924;25.562;2023-07-28T13:09:39;2.42;;;1.77;;
54899;SDS011;40801;41.924;25.562;2023-07-28T13:12:06;2.13;;;1.95;;
54899;SDS011;40801;41.924;25.562;2023-07-28T13:14:33;5.13;;;4.70;;
54899;SDS011;40801;41.924;25.562;2023-07-28T13:16:58;2.30;;;2.10;;
54899;SDS011;40801;41.924;25.562;2023-07-28T13:19:24;2.45;;;2.17;;
54899;SDS011;40801;41.924;25.562;2023-07-28T13:21:49;2.00;;;1.90;;
54899;SDS011;40801;41.924;25.562;2023-07-28T13:24:14;2.17;;;2.08;;
54899;SDS011;40801;41.924;25.562;2023-07-28T13:26:40;2.53;;;2.35;;
54899;SDS011;40801;41.924;25.562;2023-07-28T13:29:05;2.15;;;1.95;;
54899;SDS011;40801;41.924;25.562;2023-07-28T13:31:32;2.17;;;2.08;;
54899;SDS011;40801;41.924;25.562;2023-07-28T13:33:57;2.47;;;2.28;;
54899;SDS011;40801;41.924;25.562;2023-07-28T13:36:23;3.10;;;2.90;;
54899;SDS011;40801;41.924;25.562;2023-07-28T13:38:48;2.53;;;2.33;;
54899;SDS011;40801;41.924;25.562;2023-07-28T13:41:14;2.22;;;2.10;;
54899;SDS011;40801;41.924;25.562;2023-07-28T13:43:39;6.05;;;5.55;;
54899;SDS011;40801;41.924;25.562;2023-07-28T13:46:05;2.33;;;2.22;;
54899;SDS011;40801;41.924;25.562;2023-07-28T13:48:31;4.72;;;4.40;;
54899;SDS011;40801;41.924;25.562;2023-07-28T13:50:57;2.53;;;2.33;;
54899;SDS011;40801;41.924;25.562;2023-07-28T13:53:23;4.63;;;2.92;;
54899;SDS011;40801;41.924;25.562;2023-07-28T13:55:49;4.75;;;4.30;;
54899;SDS011;40801;41.924;25.562;2023-07-28T13:58:14;2.10;;;2.00;;
54899;SDS011;40801;41.924;25.562;2023-07-28T14:00:39;2.15;;;1.95;;
54899;SDS011;40801;41.924;25.562;2023-07-28T14:03:05;2.67;;;2.47;;
54899;SDS011;40801;41.924;25.562;2023-07-28T14:05:30;8.27;;;7.57;;
54899;SDS011;40801;41.924;25.562;2023-07-28T14:07:56;3.67;;;3.00;;
54899;SDS011;40801;41.924;25.562;2023-07-28T14:10:21;2.28;;;2.15;;
54899;SDS011;40801;41.924;25.562;2023-07-28T14:12:46;2.40;;;2.20;;
54899;SDS011;40801;41.924;25.562;2023-07-28T14:15:12;2.50;;;2.30;;
54899;SDS011;40801;41.924;25.562;2023-07-28T14:17:37;3.03;;;2.45;;
54899;SDS011;40801;41.924;25.562;2023-07-28T14:20:03;2.47;;;2.28;;
54899;SDS011;40801;41.924;25.562;2023-07-28T14:22:29;2.83;;;2.05;;
54899;SDS011;40801;41.924;25.562;2023-07-28T14:24:54;2.47;;;2.35;;
54899;SDS011;40801;41.924;25.562;2023-07-28T14:27:19;2.40;;;2.20;;
54899;SDS011;40801;41.924;25.562;2023-07-28T14:29:45;2.22;;;2.03;;
54899;SDS011;40801;41.924;25.562;2023-07-28T14:32:10;2.45;;;2.10;;
54899;SDS011;40801;41.924;25.562;2023-07-28T14:34:36;1.88;;;1.77;;
54899;SDS011;40801;41.924;25.562;2023-07-28T14:37:03;2.83;;;2.60;;
54899;SDS011;40801;41.924;25.562;2023-07-28T14:39:32;5.88;;;5.35;;
54899;SDS011;40801;41.924;25.562;2023-07-28T14:41:57;3.03;;;2.05;;
54899;SDS011;40801;41.924;25.562;2023-07-28T14:44:23;4.13;;;3.72;;
54899;SDS011;40801;41.924;25.562;2023-07-28T14:46:48;2.58;;;2.38;;
54899;SDS011;40801;41.924;25.562;2023-07-28T14:49:14;2.17;;;2.00;;